createdAt,value
2018-12-14T00:00:29.822Z,991.05
2018-12-14T00:01:29.737Z,991.05
2018-12-14T00:02:29.652Z,991.06
2018-12-14T00:03:29.568Z,991.07
2018-12-14T00:04:29.484Z,991.07
2018-12-14T00:05:29.398Z,991.06
2018-12-14T00:06:29.313Z,991.07
2018-12-14T00:07:29.228Z,991.10
2018-12-14T00:08:29.146Z,991.10
2018-12-14T00:09:29.058Z,991.11
2018-12-14T00:10:28.974Z,991.13
2018-12-14T00:11:28.888Z,991.11
2018-12-14T00:12:28.803Z,991.09
2018-12-14T00:13:28.720Z,991.12
2018-12-14T00:14:28.634Z,991.08
2018-12-14T00:15:28.549Z,991.06
2018-12-14T00:16:28.464Z,991.11
2018-12-14T00:17:28.381Z,991.07
2018-12-14T00:18:28.295Z,991.08
2018-12-14T00:19:28.211Z,991.06
2018-12-14T00:20:28.125Z,991.11
2018-12-14T00:21:28.293Z,991.11
2018-12-14T00:22:27.956Z,991.11
2018-12-14T00:23:27.872Z,991.15
2018-12-14T00:24:27.790Z,991.19
2018-12-14T00:25:27.703Z,991.19
2018-12-14T00:26:27.618Z,991.20
2018-12-14T00:27:27.534Z,991.22
2018-12-14T00:28:27.449Z,991.18
2018-12-14T00:29:27.364Z,991.18
2018-12-14T00:30:27.280Z,991.20
2018-12-14T00:31:27.195Z,991.24
2018-12-14T00:32:27.110Z,991.20
2018-12-14T00:33:27.025Z,991.21
2018-12-14T00:34:26.942Z,991.19
2018-12-14T00:35:26.857Z,991.17
2018-12-14T00:36:26.771Z,991.18
2018-12-14T00:37:26.686Z,991.13
2018-12-14T00:38:26.601Z,991.15
2018-12-14T00:39:26.519Z,991.18
2018-12-14T00:40:26.431Z,991.18
2018-12-14T00:41:26.349Z,991.19
2018-12-14T00:42:26.264Z,991.21
2018-12-14T00:43:26.178Z,991.19
2018-12-14T00:44:26.093Z,991.24
2018-12-14T00:45:26.012Z,991.19
2018-12-14T00:46:25.925Z,991.20
2018-12-14T00:47:25.840Z,991.22
2018-12-14T00:48:26.004Z,991.20
2018-12-14T00:49:25.669Z,991.20
2018-12-14T00:50:25.584Z,991.22
2018-12-14T00:51:25.501Z,991.22
2018-12-14T00:52:25.439Z,991.19
2018-12-14T00:53:25.329Z,991.19
2018-12-14T00:54:25.245Z,991.17
2018-12-14T00:55:25.161Z,991.15
2018-12-14T00:56:25.074Z,991.20
2018-12-14T00:57:24.991Z,991.23
2018-12-14T00:58:24.906Z,991.23
2018-12-14T00:59:24.822Z,991.24
2018-12-14T01:00:24.736Z,991.22
2018-12-14T01:01:24.652Z,991.24
2018-12-14T01:02:24.568Z,991.25
2018-12-14T01:03:24.483Z,991.27
2018-12-14T01:04:24.398Z,991.26
2018-12-14T01:05:24.313Z,991.25
2018-12-14T01:06:24.230Z,991.27
2018-12-14T01:07:24.146Z,991.33
2018-12-14T01:08:24.059Z,991.29
2018-12-14T01:09:23.974Z,991.31
2018-12-14T01:10:23.890Z,991.29
2018-12-14T01:11:23.805Z,991.28
2018-12-14T01:12:23.722Z,991.28
2018-12-14T01:13:23.636Z,991.30
2018-12-14T01:14:23.552Z,991.28
2018-12-14T01:15:23.468Z,991.25
2018-12-14T01:16:23.382Z,991.28
2018-12-14T01:17:23.298Z,991.30
2018-12-14T01:18:23.214Z,991.31
2018-12-14T01:19:23.129Z,991.26
2018-12-14T01:20:23.044Z,991.28
2018-12-14T01:21:22.960Z,991.32
2018-12-14T01:22:22.874Z,991.32
2018-12-14T01:23:22.791Z,991.29
2018-12-14T01:24:22.707Z,991.29
2018-12-14T01:25:22.620Z,991.35
2018-12-14T01:26:22.537Z,991.30
2018-12-14T01:27:22.453Z,991.29
2018-12-14T01:28:22.366Z,991.28
2018-12-14T01:29:22.283Z,991.30
2018-12-14T01:30:22.197Z,991.28
2018-12-14T01:31:22.113Z,991.31
2018-12-14T01:32:22.028Z,991.24
2018-12-14T01:33:21.942Z,991.29
2018-12-14T01:34:21.859Z,991.30
2018-12-14T01:35:21.775Z,991.27
2018-12-14T01:36:21.692Z,991.34
2018-12-14T01:37:21.606Z,991.36
2018-12-14T01:38:21.519Z,991.35
2018-12-14T01:39:21.436Z,991.33
2018-12-14T01:40:21.351Z,991.39
2018-12-14T01:41:21.267Z,991.37
2018-12-14T01:42:21.182Z,991.42
2018-12-14T01:43:21.098Z,991.39
2018-12-14T01:44:21.113Z,991.42
2018-12-14T01:45:20.930Z,991.42
2018-12-14T01:46:20.844Z,991.40
2018-12-14T01:47:20.760Z,991.39
2018-12-14T01:48:20.675Z,991.37
2018-12-14T01:49:20.590Z,991.37
2018-12-14T01:50:20.568Z,991.37
2018-12-14T01:51:20.421Z,991.37
2018-12-14T01:52:20.335Z,991.33
2018-12-14T01:53:20.251Z,991.33
2018-12-14T01:54:20.417Z,991.35
2018-12-14T01:55:20.087Z,991.36
2018-12-14T01:56:19.997Z,991.37
2018-12-14T01:57:19.913Z,991.31
2018-12-14T01:58:19.828Z,991.33
2018-12-14T01:59:19.743Z,991.31
2018-12-14T02:00:19.657Z,991.30
2018-12-14T02:01:19.600Z,991.33
2018-12-14T02:02:19.489Z,991.31
2018-12-14T02:03:19.417Z,991.29
2018-12-14T02:04:19.319Z,991.27
2018-12-14T02:05:19.235Z,991.25
2018-12-14T02:06:19.150Z,991.28
2018-12-14T02:07:19.067Z,991.23
2018-12-14T02:08:18.981Z,991.27
2018-12-14T02:09:18.897Z,991.23
2018-12-14T02:10:18.814Z,991.26
2018-12-14T02:11:18.729Z,991.24
2018-12-14T02:12:18.643Z,991.24
2018-12-14T02:13:18.559Z,991.29
2018-12-14T02:14:18.575Z,991.29
2018-12-14T02:15:18.392Z,991.28
2018-12-14T02:16:18.305Z,991.28
2018-12-14T02:17:18.220Z,991.27
2018-12-14T02:18:18.138Z,991.29
2018-12-14T02:19:18.053Z,991.27
2018-12-14T02:20:17.965Z,991.24
2018-12-14T02:21:17.881Z,991.22
2018-12-14T02:22:17.796Z,991.26
2018-12-14T02:23:17.711Z,991.24
2018-12-14T02:24:17.629Z,991.23
2018-12-14T02:25:17.542Z,991.21
2018-12-14T02:26:17.457Z,991.20
2018-12-14T02:27:17.373Z,991.23
2018-12-14T02:28:17.288Z,991.25
2018-12-14T02:29:17.205Z,991.25
2018-12-14T02:30:17.121Z,991.27
2018-12-14T02:31:17.036Z,991.27
2018-12-14T02:32:16.951Z,991.30
2018-12-14T02:33:16.869Z,991.26
2018-12-14T02:34:16.782Z,991.26
2018-12-14T02:35:16.697Z,991.24
2018-12-14T02:36:16.612Z,991.23
2018-12-14T02:37:16.531Z,991.19
2018-12-14T02:38:16.443Z,991.21
2018-12-14T02:39:16.362Z,991.16
2018-12-14T02:40:16.525Z,991.16
2018-12-14T02:41:16.189Z,991.21
2018-12-14T02:42:19.308Z,991.17
2018-12-14T02:43:16.021Z,991.13
2018-12-14T02:44:15.936Z,991.08
2018-12-14T02:45:15.850Z,991.10
2018-12-14T02:46:15.771Z,991.14
2018-12-14T02:47:15.684Z,991.13
2018-12-14T02:48:15.599Z,991.16
2018-12-14T02:49:15.513Z,991.17
2018-12-14T02:50:15.429Z,991.15
2018-12-14T02:51:15.345Z,991.16
2018-12-14T02:52:15.258Z,991.13
2018-12-14T02:53:15.175Z,991.13
2018-12-14T02:54:15.090Z,991.17
2018-12-14T02:55:15.005Z,991.16
2018-12-14T02:56:14.920Z,991.13
2018-12-14T02:57:14.837Z,991.13
2018-12-14T02:58:14.749Z,991.12
2018-12-14T02:59:14.670Z,991.14
2018-12-14T03:00:14.580Z,991.13
2018-12-14T03:01:14.545Z,991.16
2018-12-14T03:02:14.414Z,991.13
2018-12-14T03:03:14.324Z,991.13
2018-12-14T03:04:14.245Z,991.08
2018-12-14T03:05:14.156Z,991.09
2018-12-14T03:06:14.075Z,991.13
2018-12-14T03:07:13.987Z,991.12
2018-12-14T03:08:13.904Z,991.05
2018-12-14T03:09:13.818Z,991.11
2018-12-14T03:10:13.733Z,991.11
2018-12-14T03:11:13.651Z,991.11
2018-12-14T03:12:13.563Z,991.12
2018-12-14T03:13:13.479Z,991.14
2018-12-14T03:14:13.394Z,991.13
2018-12-14T03:15:13.309Z,991.09
2018-12-14T03:16:13.225Z,991.08
2018-12-14T03:17:13.139Z,991.08
2018-12-14T03:18:13.056Z,991.05
2018-12-14T03:19:13.022Z,991.07
2018-12-14T03:20:12.885Z,991.12
2018-12-14T03:21:12.802Z,991.16
2018-12-14T03:22:12.718Z,991.16
2018-12-14T03:23:12.640Z,991.19
2018-12-14T03:24:12.548Z,991.15
2018-12-14T03:25:12.464Z,991.15
2018-12-14T03:26:12.379Z,991.14
2018-12-14T03:27:12.296Z,991.15
2018-12-14T03:28:12.210Z,991.16
2018-12-14T03:29:12.134Z,991.19
2018-12-14T03:30:12.041Z,991.18
2018-12-14T03:31:11.958Z,991.21
2018-12-14T03:32:11.883Z,991.22
2018-12-14T03:33:11.787Z,991.26
2018-12-14T03:34:11.702Z,991.26
2018-12-14T03:35:11.621Z,991.28
2018-12-14T03:36:11.533Z,991.27
2018-12-14T03:37:11.497Z,991.32
2018-12-14T03:38:11.371Z,991.27
2018-12-14T03:39:11.280Z,991.26
2018-12-14T03:40:11.193Z,991.23
2018-12-14T03:41:11.108Z,991.23
2018-12-14T03:42:11.024Z,991.18
2018-12-14T03:43:10.939Z,991.19
2018-12-14T03:44:10.855Z,991.19
2018-12-14T03:45:10.772Z,991.22
2018-12-14T03:46:10.687Z,991.19
2018-12-14T03:47:10.602Z,991.22
2018-12-14T03:48:10.516Z,991.18
2018-12-14T03:49:10.532Z,991.18
2018-12-14T03:50:10.349Z,991.23
2018-12-14T03:51:10.264Z,991.23
2018-12-14T03:52:10.178Z,991.27
2018-12-14T03:53:10.094Z,991.25
2018-12-14T03:54:10.011Z,991.22
2018-12-14T03:55:09.976Z,991.27
2018-12-14T03:56:09.839Z,991.25
2018-12-14T03:57:09.756Z,991.24
2018-12-14T03:58:09.672Z,991.27
2018-12-14T03:59:09.586Z,991.28
2018-12-14T04:00:09.507Z,991.25
2018-12-14T04:01:09.421Z,991.25
2018-12-14T04:02:09.333Z,991.23
2018-12-14T04:03:09.263Z,991.22
2018-12-14T04:04:09.162Z,991.20
2018-12-14T04:05:09.078Z,991.22
2018-12-14T04:06:09.058Z,991.21
2018-12-14T04:07:08.911Z,991.20
2018-12-14T04:08:08.829Z,991.25
2018-12-14T04:09:08.749Z,991.24
2018-12-14T04:10:08.658Z,991.23
2018-12-14T04:11:08.574Z,991.20
2018-12-14T04:12:08.486Z,991.20
2018-12-14T04:13:08.454Z,991.23
2018-12-14T04:14:08.318Z,991.21
2018-12-14T04:15:08.234Z,991.21
2018-12-14T04:16:08.148Z,991.19
2018-12-14T04:17:08.065Z,991.25
2018-12-14T04:18:07.981Z,991.23
2018-12-14T04:19:07.897Z,991.25
2018-12-14T04:20:07.811Z,991.25
2018-12-14T04:21:07.726Z,991.21
2018-12-14T04:22:07.643Z,991.23
2018-12-14T04:23:07.556Z,991.26
2018-12-14T04:24:07.470Z,991.21
2018-12-14T04:25:07.390Z,991.22
2018-12-14T04:26:07.301Z,991.20
2018-12-14T04:27:07.217Z,991.21
2018-12-14T04:28:07.136Z,991.28
2018-12-14T04:29:07.047Z,991.23
2018-12-14T04:30:06.965Z,991.19
2018-12-14T04:31:06.877Z,991.20
2018-12-14T04:32:06.792Z,991.22
2018-12-14T04:33:06.707Z,991.26
2018-12-14T04:34:06.626Z,991.26
2018-12-14T04:35:06.543Z,991.24
2018-12-14T04:36:06.455Z,991.24
2018-12-14T04:37:06.369Z,991.27
2018-12-14T04:38:06.282Z,991.22
2018-12-14T04:39:06.207Z,991.23
2018-12-14T04:40:06.116Z,991.23
2018-12-14T04:41:06.028Z,991.25
2018-12-14T04:42:05.945Z,991.26
2018-12-14T04:43:05.860Z,991.26
2018-12-14T04:44:05.775Z,991.28
2018-12-14T04:45:05.707Z,991.25
2018-12-14T04:46:05.607Z,991.24
2018-12-14T04:47:05.519Z,991.26
2018-12-14T04:48:05.434Z,991.23
2018-12-14T04:49:05.500Z,991.23
2018-12-14T04:50:05.265Z,991.19
2018-12-14T04:51:05.181Z,991.19
2018-12-14T04:52:05.096Z,991.18
2018-12-14T04:53:05.011Z,991.17
2018-12-14T04:54:04.927Z,991.18
2018-12-14T04:55:04.842Z,991.17
2018-12-14T04:56:04.757Z,991.19
2018-12-14T04:57:04.672Z,991.16
2018-12-14T04:58:04.593Z,991.19
2018-12-14T04:59:04.503Z,991.17
2018-12-14T05:00:04.418Z,991.20
2018-12-14T05:01:04.334Z,991.24
2018-12-14T05:02:04.249Z,991.20
2018-12-14T05:03:04.166Z,991.17
2018-12-14T05:04:04.080Z,991.14
2018-12-14T05:05:03.996Z,991.12
2018-12-14T05:06:03.911Z,991.15
2018-12-14T05:07:04.076Z,991.13
2018-12-14T05:08:03.743Z,991.14
2018-12-14T05:09:03.656Z,991.15
2018-12-14T05:10:03.571Z,991.16
2018-12-14T05:11:03.486Z,991.18
2018-12-14T05:12:03.400Z,991.24
2018-12-14T05:13:03.328Z,991.18
2018-12-14T05:14:03.232Z,991.26
2018-12-14T05:15:03.147Z,991.23
2018-12-14T05:16:03.062Z,991.25
2018-12-14T05:17:02.976Z,991.27
2018-12-14T05:18:02.891Z,991.23
2018-12-14T05:19:02.911Z,991.17
2018-12-14T05:20:02.720Z,991.20
2018-12-14T05:21:02.636Z,991.20
2018-12-14T05:22:02.551Z,991.26
2018-12-14T05:23:02.468Z,991.21
2018-12-14T05:24:02.382Z,991.22
2018-12-14T05:25:02.346Z,991.21
2018-12-14T05:26:02.211Z,991.27
2018-12-14T05:27:02.128Z,991.22
2018-12-14T05:28:02.041Z,991.24
2018-12-14T05:29:01.956Z,991.26
2018-12-14T05:30:01.871Z,991.24
2018-12-14T05:31:01.786Z,991.25
2018-12-14T05:32:01.700Z,991.28
2018-12-14T05:33:01.621Z,991.27
2018-12-14T05:34:01.529Z,991.30
2018-12-14T05:35:01.445Z,991.31
2018-12-14T05:36:01.358Z,991.30
2018-12-14T05:37:01.274Z,991.30
2018-12-14T05:38:01.187Z,991.28
2018-12-14T05:39:01.103Z,991.35
2018-12-14T05:40:01.019Z,991.35
2018-12-14T05:41:00.934Z,991.29
2018-12-14T05:42:00.847Z,991.31
2018-12-14T05:43:02.720Z,991.34
2018-12-14T05:44:00.684Z,991.35
2018-12-14T05:45:00.593Z,991.34
2018-12-14T05:46:00.509Z,991.34
2018-12-14T05:47:00.425Z,991.30
2018-12-14T05:48:00.338Z,991.30
2018-12-14T05:49:00.254Z,991.33
2018-12-14T05:50:00.169Z,991.28
2018-12-14T05:51:00.083Z,991.28
2018-12-14T05:51:59.999Z,991.28
2018-12-14T05:52:59.913Z,991.30
2018-12-14T05:53:59.827Z,991.28
2018-12-14T05:54:59.742Z,991.31
2018-12-14T05:55:59.656Z,991.32
2018-12-14T05:56:59.574Z,991.29
2018-12-14T05:57:59.488Z,991.28
2018-12-14T05:58:59.401Z,991.30
2018-12-14T05:59:59.315Z,991.31
2018-12-14T06:00:59.331Z,991.36
2018-12-14T06:01:59.146Z,991.33
2018-12-14T06:02:59.060Z,991.36
2018-12-14T06:03:58.974Z,991.41
2018-12-14T06:04:58.889Z,991.41
2018-12-14T06:05:58.805Z,991.43
2018-12-14T06:06:58.719Z,991.44
2018-12-14T06:07:58.634Z,991.47
2018-12-14T06:08:58.548Z,991.49
2018-12-14T06:09:58.462Z,991.44
2018-12-14T06:10:58.379Z,991.48
2018-12-14T06:11:58.293Z,991.47
2018-12-14T06:12:58.208Z,991.49
2018-12-14T06:13:58.124Z,991.50
2018-12-14T06:14:58.052Z,991.44
2018-12-14T06:15:57.954Z,991.46
2018-12-14T06:16:57.869Z,991.47
2018-12-14T06:17:57.784Z,991.49
2018-12-14T06:18:57.798Z,991.53
2018-12-14T06:19:57.611Z,991.55
2018-12-14T06:20:57.526Z,991.54
2018-12-14T06:21:57.443Z,991.58
2018-12-14T06:22:57.356Z,991.55
2018-12-14T06:23:57.270Z,991.60
2018-12-14T06:24:57.184Z,991.61
2018-12-14T06:25:57.100Z,991.60
2018-12-14T06:26:57.014Z,991.60
2018-12-14T06:27:56.929Z,991.62
2018-12-14T06:28:56.842Z,991.62
2018-12-14T06:29:56.758Z,991.61
2018-12-14T06:30:56.673Z,991.65
2018-12-14T06:31:56.587Z,991.70
2018-12-14T06:32:56.502Z,991.66
2018-12-14T06:33:56.428Z,991.65
2018-12-14T06:34:56.331Z,991.63
2018-12-14T06:35:56.245Z,991.64
2018-12-14T06:36:56.259Z,991.62
2018-12-14T06:37:56.074Z,991.65
2018-12-14T06:38:55.990Z,991.65
2018-12-14T06:39:55.903Z,991.64
2018-12-14T06:40:55.819Z,991.69
2018-12-14T06:41:55.734Z,991.72
2018-12-14T06:42:55.647Z,991.72
2018-12-14T06:43:55.561Z,991.69
2018-12-14T06:44:55.476Z,991.70
2018-12-14T06:45:55.392Z,991.74
2018-12-14T06:46:55.308Z,991.74
2018-12-14T06:47:55.221Z,991.78
2018-12-14T06:48:55.134Z,991.76
2018-12-14T06:49:55.055Z,991.73
2018-12-14T06:50:54.965Z,991.77
2018-12-14T06:51:54.878Z,991.82
2018-12-14T06:52:54.794Z,991.83
2018-12-14T06:53:54.708Z,991.82
2018-12-14T06:54:54.773Z,991.87
2018-12-14T06:55:54.536Z,991.84
2018-12-14T06:56:54.451Z,991.88
2018-12-14T06:57:54.365Z,991.90
2018-12-14T06:58:54.280Z,991.87
2018-12-14T06:59:54.195Z,991.91
2018-12-14T07:00:54.108Z,991.91
2018-12-14T07:01:54.023Z,991.93
2018-12-14T07:02:53.939Z,991.94
2018-12-14T07:03:53.854Z,991.96
2018-12-14T07:04:53.767Z,991.96
2018-12-14T07:05:53.683Z,991.95
2018-12-14T07:06:53.596Z,992.04
2018-12-14T07:07:53.510Z,992.03
2018-12-14T07:08:53.424Z,992.01
2018-12-14T07:09:53.338Z,992.04
2018-12-14T07:10:53.254Z,992.03
2018-12-14T07:11:53.166Z,992.05
2018-12-14T07:12:53.133Z,992.08
2018-12-14T07:13:52.997Z,992.07
2018-12-14T07:14:52.910Z,992.14
2018-12-14T07:15:52.825Z,992.14
2018-12-14T07:16:52.739Z,992.13
2018-12-14T07:17:52.654Z,992.19
2018-12-14T07:18:52.568Z,992.12
2018-12-14T07:19:52.486Z,992.16
2018-12-14T07:20:52.398Z,992.19
2018-12-14T07:21:52.311Z,992.18
2018-12-14T07:22:52.225Z,992.17
2018-12-14T07:23:52.140Z,992.22
2018-12-14T07:24:52.054Z,992.20
2018-12-14T07:25:51.969Z,992.25
2018-12-14T07:26:51.884Z,992.25
2018-12-14T07:27:51.799Z,992.30
2018-12-14T07:28:51.716Z,992.27
2018-12-14T07:29:51.629Z,992.28
2018-12-14T07:30:51.794Z,992.29
2018-12-14T07:31:51.458Z,992.29
2018-12-14T07:32:51.373Z,992.32
2018-12-14T07:33:51.287Z,992.31
2018-12-14T07:34:51.201Z,992.32
2018-12-14T07:35:51.114Z,992.38
2018-12-14T07:36:51.030Z,992.32
2018-12-14T07:37:50.948Z,992.36
2018-12-14T07:38:51.770Z,992.36
2018-12-14T07:39:50.775Z,992.35
2018-12-14T07:40:50.689Z,992.38
2018-12-14T07:41:50.706Z,992.42
2018-12-14T07:42:50.519Z,992.38
2018-12-14T07:43:50.433Z,992.37
2018-12-14T07:44:50.495Z,992.37
2018-12-14T07:45:50.263Z,992.45
2018-12-14T07:46:50.179Z,992.43
2018-12-14T07:47:50.091Z,992.46
2018-12-14T07:48:50.056Z,992.49
2018-12-14T07:49:49.922Z,992.48
2018-12-14T07:50:49.835Z,992.52
2018-12-14T07:51:49.750Z,992.49
2018-12-14T07:52:49.666Z,992.47
2018-12-14T07:53:49.579Z,992.44
2018-12-14T07:54:49.494Z,992.50
2018-12-14T07:55:49.408Z,992.53
2018-12-14T07:56:49.323Z,992.50
2018-12-14T07:57:49.240Z,992.52
2018-12-14T07:58:49.152Z,992.51
2018-12-14T07:59:49.067Z,992.56
2018-12-14T08:00:48.981Z,992.53
2018-12-14T08:01:48.896Z,992.54
2018-12-14T08:02:48.813Z,992.55
2018-12-14T08:03:48.726Z,992.56
2018-12-14T08:04:48.641Z,992.54
2018-12-14T08:05:48.555Z,992.59
2018-12-14T08:06:48.520Z,992.56
2018-12-14T08:07:48.384Z,992.57
2018-12-14T08:08:48.300Z,992.59
2018-12-14T08:09:48.214Z,992.55
2018-12-14T08:10:48.131Z,992.60
2018-12-14T08:11:48.045Z,992.62
2018-12-14T08:12:48.208Z,992.61
2018-12-14T08:13:47.875Z,992.63
2018-12-14T08:14:47.789Z,992.65
2018-12-14T08:15:47.704Z,992.70
2018-12-14T08:16:47.618Z,992.68
2018-12-14T08:17:47.535Z,992.66
2018-12-14T08:18:47.450Z,992.68
2018-12-14T08:19:47.363Z,992.71
2018-12-14T08:20:47.279Z,992.72
2018-12-14T08:21:47.194Z,992.68
2018-12-14T08:22:47.112Z,992.68
2018-12-14T08:23:47.023Z,992.69
2018-12-14T08:24:46.988Z,992.70
2018-12-14T08:25:46.853Z,992.68
2018-12-14T08:26:46.768Z,992.72
2018-12-14T08:27:46.682Z,992.75
2018-12-14T08:28:46.597Z,992.78
2018-12-14T08:29:46.512Z,992.80
2018-12-14T08:30:46.426Z,992.84
2018-12-14T08:31:46.347Z,992.77
2018-12-14T08:32:46.256Z,992.81
2018-12-14T08:33:46.172Z,992.84
2018-12-14T08:34:50.887Z,992.84
2018-12-14T08:35:46.001Z,992.86
2018-12-14T08:36:45.916Z,992.91
2018-12-14T08:37:45.830Z,992.87
2018-12-14T08:38:45.746Z,992.91
2018-12-14T08:39:45.659Z,992.88
2018-12-14T08:40:45.575Z,992.89
2018-12-14T08:41:45.490Z,992.89
2018-12-14T08:42:45.404Z,992.92
2018-12-14T08:43:45.318Z,992.92
2018-12-14T08:44:45.234Z,992.94
2018-12-14T08:45:45.149Z,992.96
2018-12-14T08:46:45.065Z,992.92
2018-12-14T08:47:44.980Z,992.97
2018-12-14T08:48:44.997Z,992.97
2018-12-14T08:49:44.809Z,993.02
2018-12-14T08:50:44.727Z,993.03
2018-12-14T08:51:44.638Z,993.05
2018-12-14T08:52:45.285Z,993.04
2018-12-14T08:53:44.470Z,993.05
2018-12-14T08:54:44.386Z,993.06
2018-12-14T08:55:44.298Z,993.06
2018-12-14T08:56:44.214Z,993.07
2018-12-14T08:57:44.128Z,993.08
2018-12-14T08:58:44.044Z,993.07
2018-12-14T08:59:43.959Z,993.08
2018-12-14T09:00:43.922Z,993.10
2018-12-14T09:01:43.788Z,993.13
2018-12-14T09:02:43.702Z,993.13
2018-12-14T09:03:43.616Z,993.12
2018-12-14T09:04:43.532Z,993.17
2018-12-14T09:05:43.447Z,993.15
2018-12-14T09:06:43.363Z,993.19
2018-12-14T09:07:43.275Z,993.20
2018-12-14T09:08:43.191Z,993.19
2018-12-14T09:09:43.107Z,993.21
2018-12-14T09:10:43.021Z,993.21
2018-12-14T09:11:42.935Z,993.27
2018-12-14T09:12:43.002Z,993.30
2018-12-14T09:13:47.864Z,993.35
2018-12-14T09:14:42.681Z,993.36
2018-12-14T09:15:42.595Z,993.35
2018-12-14T09:16:42.511Z,993.33
2018-12-14T09:17:42.427Z,993.37
2018-12-14T09:18:42.391Z,993.40
2018-12-14T09:19:42.254Z,993.36
2018-12-14T09:20:42.169Z,993.37
2018-12-14T09:21:42.085Z,993.39
2018-12-14T09:22:41.999Z,993.37
2018-12-14T09:23:41.914Z,993.39
2018-12-14T09:24:41.832Z,993.39
2018-12-14T09:25:41.744Z,993.34
2018-12-14T09:26:41.658Z,993.39
2018-12-14T09:27:41.573Z,993.42
2018-12-14T09:28:41.488Z,993.45
2018-12-14T09:29:41.402Z,993.37
2018-12-14T09:30:42.858Z,993.40
2018-12-14T09:31:41.234Z,993.42
2018-12-14T09:32:41.147Z,993.41
2018-12-14T09:33:41.061Z,993.42
2018-12-14T09:34:40.977Z,993.42
2018-12-14T09:35:40.890Z,993.41
2018-12-14T09:36:40.858Z,993.42
2018-12-14T09:37:40.721Z,993.44
2018-12-14T09:38:40.636Z,993.41
2018-12-14T09:39:40.550Z,993.43
2018-12-14T09:40:40.467Z,993.44
2018-12-14T09:41:40.381Z,993.45
2018-12-14T09:42:40.297Z,993.42
2018-12-14T09:43:40.210Z,993.45
2018-12-14T09:44:40.128Z,993.44
2018-12-14T09:45:40.041Z,993.41
2018-12-14T09:46:39.955Z,993.40
2018-12-14T09:47:39.870Z,993.42
2018-12-14T09:48:39.885Z,993.44
2018-12-14T09:49:39.700Z,993.45
2018-12-14T09:50:39.615Z,993.46
2018-12-14T09:51:39.529Z,993.45
2018-12-14T09:52:39.444Z,993.43
2018-12-14T09:53:39.359Z,993.48
2018-12-14T09:54:39.324Z,993.46
2018-12-14T09:55:39.190Z,993.48
2018-12-14T09:56:39.104Z,993.44
2018-12-14T09:57:39.019Z,993.47
2018-12-14T09:58:38.934Z,993.43
2018-12-14T09:59:38.848Z,993.44
2018-12-14T10:00:38.764Z,993.46
2018-12-14T10:01:38.679Z,993.45
2018-12-14T10:02:38.592Z,993.44
2018-12-14T10:03:38.507Z,993.42
2018-12-14T10:04:38.422Z,993.39
2018-12-14T10:05:38.337Z,993.38
2018-12-14T10:06:38.252Z,993.42
2018-12-14T10:07:38.167Z,993.40
2018-12-14T10:08:38.085Z,993.43
2018-12-14T10:09:37.997Z,993.44
2018-12-14T10:10:37.912Z,993.39
2018-12-14T10:11:37.825Z,993.39
2018-12-14T10:12:37.840Z,993.43
2018-12-14T10:13:37.657Z,993.42
2018-12-14T10:14:37.572Z,993.42
2018-12-14T10:15:37.484Z,993.41
2018-12-14T10:16:37.401Z,993.36
2018-12-14T10:17:37.319Z,993.45
2018-12-14T10:18:37.231Z,993.44
2018-12-14T10:19:37.146Z,993.45
2018-12-14T10:20:37.060Z,993.48
2018-12-14T10:21:36.975Z,993.52
2018-12-14T10:22:41.480Z,993.51
2018-12-14T10:23:36.805Z,993.43
2018-12-14T10:24:36.758Z,993.50
2018-12-14T10:25:36.637Z,993.51
2018-12-14T10:26:36.552Z,993.52
2018-12-14T10:27:36.465Z,993.50
2018-12-14T10:28:36.382Z,993.54
2018-12-14T10:29:36.296Z,993.54
2018-12-14T10:30:36.216Z,993.50
2018-12-14T10:31:36.126Z,993.53
2018-12-14T10:32:36.042Z,993.54
2018-12-14T10:33:35.958Z,993.53
2018-12-14T10:34:35.873Z,993.56
2018-12-14T10:35:35.789Z,993.53
2018-12-14T10:36:35.751Z,993.52
2018-12-14T10:37:35.622Z,993.50
2018-12-14T10:38:35.533Z,993.52
2018-12-14T10:39:35.447Z,993.53
2018-12-14T10:40:35.361Z,993.54
2018-12-14T10:41:35.278Z,993.54
2018-12-14T10:42:35.195Z,993.50
2018-12-14T10:43:35.107Z,993.50
2018-12-14T10:44:35.022Z,993.50
2018-12-14T10:45:34.939Z,993.47
2018-12-14T10:46:34.852Z,993.44
2018-12-14T10:47:34.767Z,993.44
2018-12-14T10:48:34.731Z,993.44
2018-12-14T10:49:34.597Z,993.44
2018-12-14T10:50:39.659Z,993.45
2018-12-14T10:51:34.426Z,993.45
2018-12-14T10:52:34.343Z,993.44
2018-12-14T10:53:34.258Z,993.47
2018-12-14T10:54:34.173Z,993.47
2018-12-14T10:55:34.088Z,993.44
2018-12-14T10:56:34.005Z,993.43
2018-12-14T10:57:33.919Z,993.42
2018-12-14T10:58:33.834Z,993.43
2018-12-14T10:59:33.848Z,993.41
2018-12-14T11:00:33.663Z,993.41
2018-12-14T11:01:33.578Z,993.42
2018-12-14T11:02:33.495Z,993.41
2018-12-14T11:03:33.408Z,993.45
2018-12-14T11:04:33.323Z,993.44
2018-12-14T11:05:33.238Z,993.40
2018-12-14T11:06:33.203Z,993.43
2018-12-14T11:07:33.067Z,993.49
2018-12-14T11:08:32.984Z,993.48
2018-12-14T11:09:32.899Z,993.48
2018-12-14T11:10:32.814Z,993.49
2018-12-14T11:11:32.730Z,993.51
2018-12-14T11:12:32.644Z,993.48
2018-12-14T11:13:32.560Z,993.47
2018-12-14T11:14:32.475Z,993.48
2018-12-14T11:15:32.390Z,993.46
2018-12-14T11:16:32.305Z,993.47
2018-12-14T11:17:32.222Z,993.47
2018-12-14T11:18:32.137Z,993.45
2018-12-14T11:19:32.051Z,993.46
2018-12-14T11:20:31.969Z,993.46
2018-12-14T11:21:31.887Z,993.48
2018-12-14T11:22:31.798Z,993.51
2018-12-14T11:23:31.713Z,993.46
2018-12-14T11:24:31.777Z,993.45
2018-12-14T11:25:31.544Z,993.41
2018-12-14T11:26:31.459Z,993.38
2018-12-14T11:27:31.374Z,993.45
2018-12-14T11:28:31.289Z,993.46
2018-12-14T11:29:31.204Z,993.47
2018-12-14T11:30:31.120Z,993.42
2018-12-14T11:31:31.034Z,993.38
2018-12-14T11:32:30.948Z,993.37
2018-12-14T11:33:30.865Z,993.40
2018-12-14T11:34:30.780Z,993.40
2018-12-14T11:35:30.694Z,993.40
2018-12-14T11:36:30.609Z,993.40
2018-12-14T11:37:30.523Z,993.41
2018-12-14T11:38:30.446Z,993.33
2018-12-14T11:39:30.352Z,993.35
2018-12-14T11:40:30.270Z,993.35
2018-12-14T11:41:30.182Z,993.37
2018-12-14T11:42:30.147Z,993.34
2018-12-14T11:43:30.012Z,993.36
2018-12-14T11:44:29.929Z,993.38
2018-12-14T11:45:29.842Z,993.39
2018-12-14T11:46:29.757Z,993.37
2018-12-14T11:47:29.673Z,993.33
2018-12-14T11:48:29.593Z,993.32
2018-12-14T11:49:29.502Z,993.31
2018-12-14T11:50:29.418Z,993.35
2018-12-14T11:51:29.333Z,993.37
2018-12-14T11:52:29.247Z,993.33
2018-12-14T11:53:29.164Z,993.35
2018-12-14T11:54:29.079Z,993.41
2018-12-14T11:55:28.993Z,993.39
2018-12-14T11:56:28.908Z,993.38
2018-12-14T11:57:28.825Z,993.34
2018-12-14T11:58:28.740Z,993.33
2018-12-14T11:59:28.654Z,993.38
2018-12-14T12:00:28.621Z,993.36
2018-12-14T12:01:28.485Z,993.37
2018-12-14T12:02:28.400Z,993.38
2018-12-14T12:03:28.315Z,993.35
2018-12-14T12:04:28.230Z,993.35
2018-12-14T12:05:28.146Z,993.41
2018-12-14T12:06:28.062Z,993.42
2018-12-14T12:07:27.975Z,993.42
2018-12-14T12:08:27.894Z,993.40
2018-12-14T12:09:27.808Z,993.37
2018-12-14T12:10:27.723Z,993.34
2018-12-14T12:11:27.637Z,993.35
2018-12-14T12:12:27.554Z,993.33
2018-12-14T12:13:27.509Z,993.31
2018-12-14T12:14:27.384Z,993.33
2018-12-14T12:15:27.301Z,993.33
2018-12-14T12:16:27.218Z,993.34
2018-12-14T12:17:27.128Z,993.31
2018-12-14T12:18:27.044Z,993.34
2018-12-14T12:19:26.959Z,993.30
2018-12-14T12:20:26.872Z,993.33
2018-12-14T12:21:26.789Z,993.34
2018-12-14T12:22:26.705Z,993.38
2018-12-14T12:23:26.619Z,993.31
2018-12-14T12:24:26.633Z,993.32
2018-12-14T12:25:26.447Z,993.31
2018-12-14T12:26:26.362Z,993.28
2018-12-14T12:27:26.276Z,993.35